createdAt,value
2022-08-27T14:09:34.012Z,11.15
2022-08-27T14:12:06.549Z,11.43
2022-08-27T14:14:39.498Z,11.20
2022-08-27T14:17:19.975Z,9.25
2022-08-27T14:19:47.888Z,11.80
2022-08-27T14:22:17.382Z,12.70
2022-08-27T14:24:44.263Z,12.77
2022-08-27T14:27:14.678Z,12.15
2022-08-27T14:29:41.767Z,11.07
2022-08-27T14:32:08.965Z,11.68
2022-08-27T14:34:36.611Z,11.30
2022-08-27T14:37:04.777Z,11.93
2022-08-27T14:39:31.981Z,10.30
2022-08-27T14:41:59.320Z,12.13
2022-08-27T14:44:27.015Z,10.60
2022-08-27T14:46:54.725Z,10.52
2022-08-27T14:49:34.958Z,12.48
2022-08-27T14:52:04.444Z,10.20
2022-08-27T14:54:33.602Z,10.40
2022-08-27T14:57:02.379Z,10.98
2022-08-27T14:59:29.410Z,8.50
2022-08-27T15:02:01.474Z,10.23
2022-08-27T15:04:29.228Z,10.02
2022-08-27T15:06:56.151Z,8.77
2022-08-27T15:09:23.132Z,9.30
2022-08-27T15:11:51.086Z,8.52
2022-08-27T15:14:26.466Z,8.85
2022-08-27T15:16:54.170Z,9.45
2022-08-27T15:19:23.297Z,10.07
2022-08-27T15:21:52.058Z,10.05
2022-08-27T15:24:28.299Z,8.90
2022-08-27T15:26:59.619Z,8.45
2022-08-27T15:29:27.212Z,8.82
2022-08-27T15:31:54.430Z,11.48
2022-08-27T15:34:21.756Z,12.15
2022-08-27T15:36:48.614Z,10.43
2022-08-27T15:39:15.569Z,10.80
2022-08-27T15:42:05.052Z,8.63
2022-08-27T15:44:30.562Z,8.38
2022-08-27T15:46:57.597Z,10.80
2022-08-27T15:49:24.470Z,8.35
2022-08-27T15:51:52.030Z,9.50
2022-08-27T15:54:19.587Z,11.05
2022-08-27T15:56:46.523Z,11.23
2022-08-27T15:59:13.370Z,11.38
2022-08-27T16:01:40.316Z,10.07
2022-08-27T16:04:07.980Z,10.57
2022-08-27T16:06:35.108Z,10.00
2022-08-27T16:09:02.811Z,9.02
2022-08-27T16:11:32.248Z,9.18
2022-08-27T16:13:59.278Z,11.00
2022-08-27T16:16:30.851Z,9.57
2022-08-27T16:19:01.334Z,8.85
2022-08-27T16:21:28.763Z,9.25
2022-08-27T16:23:55.589Z,9.30
2022-08-27T16:26:23.137Z,8.88
2022-08-27T16:28:49.881Z,8.00
2022-08-27T16:31:16.833Z,7.95
2022-08-27T16:33:44.010Z,7.32
2022-08-27T16:36:11.165Z,7.32
2022-08-27T16:38:38.189Z,7.55
2022-08-27T16:41:05.688Z,6.95
2022-08-27T16:43:33.045Z,6.25
2022-08-27T16:46:01.820Z,6.40
2022-08-27T16:48:47.725Z,5.50
2022-08-27T16:51:32.648Z,5.05
2022-08-27T16:54:01.715Z,4.50
2022-08-27T16:56:28.744Z,3.95
2022-08-27T16:58:55.643Z,4.28
2022-08-27T17:01:24.984Z,3.78
2022-08-27T17:04:09.040Z,4.00
2022-08-27T17:06:40.108Z,3.95
2022-08-27T17:09:07.278Z,3.50
2022-08-27T17:11:36.179Z,4.90
2022-08-27T17:14:04.626Z,4.13
2022-08-27T17:16:33.512Z,2.83
2022-08-27T17:19:02.306Z,3.95
2022-08-27T17:21:30.312Z,3.60
2022-08-27T17:24:01.810Z,3.38
2022-08-27T17:26:30.330Z,3.65
2022-08-27T17:28:57.760Z,3.58
2022-08-27T17:31:33.401Z,3.40
2022-08-27T17:34:00.778Z,3.63
2022-08-27T17:36:30.398Z,3.22
2022-08-27T17:38:57.647Z,3.53
2022-08-27T17:41:36.803Z,3.75
2022-08-27T17:44:24.225Z,3.47
2022-08-27T17:46:52.469Z,3.20
2022-08-27T17:49:19.362Z,3.28
2022-08-27T17:51:48.417Z,3.30
2022-08-27T17:54:26.275Z,3.65
2022-08-27T17:56:53.022Z,3.30
2022-08-27T17:59:20.486Z,3.42
2022-08-27T18:01:47.828Z,3.55
2022-08-27T18:04:15.099Z,3.53
2022-08-27T18:06:42.139Z,3.35
2022-08-27T18:09:09.434Z,3.03
2022-08-27T18:11:39.238Z,4.13
2022-08-27T18:14:06.112Z,3.50
2022-08-27T18:16:33.874Z,4.13
2022-08-27T18:19:06.843Z,3.70
2022-08-27T18:21:34.104Z,4.83
2022-08-27T18:24:01.250Z,4.88
2022-08-27T18:26:29.567Z,5.18
2022-08-27T18:28:57.895Z,4.88
2022-08-27T18:31:32.740Z,4.10
2022-08-27T18:34:00.868Z,3.17
2022-08-27T18:36:27.944Z,3.30
2022-08-27T18:38:54.752Z,3.75
2022-08-27T18:41:22.622Z,3.55
2022-08-27T18:43:49.730Z,3.60
2022-08-27T18:46:17.316Z,3.50
2022-08-27T18:48:44.359Z,3.10
2022-08-27T18:51:14.037Z,3.22
2022-08-27T18:53:42.881Z,3.60
2022-08-27T18:56:12.167Z,3.30
2022-08-27T18:58:43.702Z,3.17
2022-08-27T19:01:14.128Z,3.17
2022-08-27T19:03:48.385Z,2.83
2022-08-27T19:06:18.029Z,3.15
2022-08-27T19:08:44.876Z,3.05
2022-08-27T19:11:11.785Z,3.20
2022-08-27T19:13:39.158Z,3.40
2022-08-27T19:16:18.748Z,3.40
2022-08-27T19:18:46.851Z,3.25
2022-08-27T19:21:14.258Z,2.72
2022-08-27T19:23:41.697Z,3.05
2022-08-27T19:26:15.969Z,2.97
2022-08-27T19:28:45.203Z,3.15
2022-08-27T19:31:13.472Z,3.40
2022-08-27T19:33:40.519Z,3.70
2022-08-27T19:36:12.591Z,3.70
2022-08-27T19:38:43.319Z,3.00
2022-08-27T19:41:10.244Z,3.30
2022-08-27T19:43:37.764Z,2.72
2022-08-27T19:46:07.579Z,2.95
2022-08-27T19:48:34.584Z,2.90
2022-08-27T19:51:01.559Z,3.53
2022-08-27T19:53:28.376Z,3.50
2022-08-27T19:55:55.289Z,3.13
2022-08-27T19:58:22.384Z,3.70
2022-08-27T20:00:49.399Z,3.30
2022-08-27T20:03:16.613Z,3.38
2022-08-27T20:05:45.486Z,3.50
2022-08-27T20:08:12.736Z,3.10
2022-08-27T20:10:40.236Z,3.50
2022-08-27T20:13:08.050Z,3.20
2022-08-27T20:15:36.594Z,3.17
2022-08-27T20:18:05.686Z,3.22
2022-08-27T20:20:34.091Z,3.13
2022-08-27T20:23:02.923Z,3.28
2022-08-27T20:25:30.172Z,3.05
2022-08-27T20:27:57.003Z,3.75
2022-08-27T20:30:26.809Z,3.30
2022-08-27T20:32:53.715Z,3.35
2022-08-27T20:35:21.870Z,2.83
2022-08-27T20:37:48.630Z,3.35
2022-08-27T20:40:21.663Z,3.22
2022-08-27T20:42:48.624Z,3.50
2022-08-27T20:45:16.774Z,3.25
2022-08-27T20:47:45.946Z,3.75
2022-08-27T20:50:13.897Z,3.22
2022-08-27T20:52:41.551Z,3.42
2022-08-27T20:55:10.126Z,3.42
2022-08-27T20:57:36.958Z,3.45
2022-08-27T21:00:20.501Z,3.40
2022-08-27T21:02:47.912Z,3.60
2022-08-27T21:05:16.765Z,2.88
2022-08-27T21:07:44.661Z,3.78
2022-08-27T21:10:11.814Z,3.47
2022-08-27T21:12:38.572Z,3.20
2022-08-27T21:15:07.345Z,4.10
2022-08-27T21:17:34.289Z,3.38
2022-08-27T21:20:01.803Z,3.65
2022-08-27T21:22:28.567Z,3.45
2022-08-27T21:24:55.648Z,3.40
2022-08-27T21:27:22.777Z,3.50
2022-08-27T21:29:50.350Z,3.25
2022-08-27T21:32:17.686Z,3.28
2022-08-27T21:34:44.757Z,4.00
2022-08-27T21:37:13.872Z,3.53
2022-08-27T21:39:42.554Z,3.90
2022-08-27T21:42:10.138Z,3.88
2022-08-27T21:44:37.476Z,3.53
2022-08-27T21:47:05.558Z,3.80
2022-08-27T21:49:33.037Z,4.30
2022-08-27T21:52:03.361Z,3.22
2022-08-27T21:54:32.903Z,3.80
2022-08-27T21:57:00.779Z,4.00
2022-08-27T21:59:27.863Z,3.92
2022-08-27T22:02:00.565Z,3.88
2022-08-27T22:04:30.653Z,3.78
2022-08-27T22:06:58.860Z,3.55
2022-08-27T22:09:26.193Z,3.90
2022-08-27T22:11:53.419Z,3.90
2022-08-27T22:14:21.501Z,4.10
2022-08-27T22:16:48.339Z,4.00
2022-08-27T22:19:15.227Z,4.18
2022-08-27T22:21:42.675Z,4.30
2022-08-27T22:24:09.600Z,3.75
2022-08-27T22:26:37.070Z,3.80
2022-08-27T22:29:06.523Z,4.05
2022-08-27T22:31:36.098Z,4.00
2022-08-27T22:34:05.023Z,4.20
2022-08-27T22:36:35.323Z,3.92
2022-08-27T22:39:04.410Z,3.80
2022-08-27T22:41:36.458Z,4.00
2022-08-27T22:44:09.313Z,3.88
2022-08-27T22:49:19.170Z,4.32
2022-08-27T22:51:46.578Z,4.20
2022-08-27T22:54:19.039Z,4.03
2022-08-27T22:56:45.961Z,4.45
2022-08-27T22:59:14.208Z,4.47
2022-08-27T23:01:41.113Z,3.97
2022-08-27T23:04:08.257Z,4.85
2022-08-27T23:06:35.526Z,3.92
2022-08-27T23:09:02.484Z,4.20
2022-08-27T23:11:31.990Z,4.63
2022-08-27T23:14:00.820Z,4.03
2022-08-27T23:16:51.961Z,4.07
2022-08-27T23:19:19.224Z,4.22
2022-08-27T23:21:46.147Z,4.00
2022-08-27T23:24:13.000Z,4.75
2022-08-27T23:26:58.340Z,4.22
2022-08-27T23:29:25.197Z,4.10
2022-08-27T23:31:52.708Z,4.20
2022-08-27T23:34:20.343Z,4.10
2022-08-27T23:36:47.993Z,3.95
2022-08-27T23:39:15.755Z,4.28
2022-08-27T23:41:44.039Z,3.75
2022-08-27T23:44:11.969Z,4.10
2022-08-27T23:46:39.422Z,4.35
2022-08-27T23:49:06.342Z,4.10
2022-08-27T23:51:33.811Z,4.30
2022-08-27T23:54:00.749Z,3.95
2022-08-27T23:56:30.090Z,4.00
2022-08-27T23:58:57.127Z,3.80
